Time;durP1;ratioP1;P1;durP2;ratioP2;P2;SDS_P1;SDS_P2;PMS_P1;PMS_P2;Temp;Humidity;BMP_temperature;BMP_pressure;BME280_temperature;BME280_humidity;BME280_pressure;Samples;Min_cycle;Max_cycle;Signal;HPM_P1;HPM_P2
2022/08/16 00:02:56;;;;;;;9.30;7.90;;;;;;;;;;9991094;29;20080;-68
2022/08/16 00:07:53;;;;;;;8.50;7.50;;;;;;;;;;9997215;29;20068;-68
2022/08/16 00:12:52;;;;;;;8.73;7.78;;;;;;;;;;9995406;29;20786;-67
2022/08/16 00:17:50;;;;;;;11.43;8.35;;;;;;;;;;9995183;29;20692;-68
2022/08/16 00:22:52;;;;;;;9.57;8.57;;;;;;;;;;9996904;29;20043;-69
2022/08/16 00:27:49;;;;;;;11.20;8.68;;;;;;;;;;9990341;29;20052;-67
2022/08/16 00:32:50;;;;;;;11.73;9.13;;;;;;;;;;9995187;29;20139;-68
2022/08/16 00:37:55;;;;;;;10.00;8.35;;;;;;;;;;9992050;29;20138;-68
2022/08/16 00:42:54;;;;;;;8.55;7.68;;;;;;;;;;9993909;29;20054;-69
2022/08/16 00:47:52;;;;;;;11.23;7.75;;;;;;;;;;9992973;29;20051;-69
2022/08/16 00:52:48;;;;;;;12.48;8.52;;;;;;;;;;9996105;29;20048;-68
2022/08/16 00:57:48;;;;;;;12.88;8.95;;;;;;;;;;9994816;29;20058;-68
2022/08/16 01:02:57;;;;;;;12.27;9.45;;;;;;;;;;10001671;29;20047;-67
2022/08/16 01:07:54;;;;;;;10.43;8.90;;;;;;;;;;9989914;29;20077;-68
2022/08/16 01:12:50;;;;;;;12.43;9.15;;;;;;;;;;9992993;29;20570;-68
2022/08/16 01:17:47;;;;;;;11.77;8.38;;;;;;;;;;9994561;29;20397;-68
2022/08/16 01:23:10;;;;;;;11.30;9.40;;;;;;;;;;9994928;29;20055;-68
2022/08/16 01:28:10;;;;;;;11.00;8.85;;;;;;;;;;9994087;29;20075;-68
2022/08/16 01:33:16;;;;;;;11.93;10.63;;;;;;;;;;9997151;29;20067;-68
2022/08/16 01:38:19;;;;;;;11.35;8.88;;;;;;;;;;9990720;29;20059;-68
2022/08/16 01:43:15;;;;;;;12.73;9.95;;;;;;;;;;9986390;29;20080;-68
2022/08/16 01:48:12;;;;;;;11.48;9.65;;;;;;;;;;9993626;29;20795;-68
2022/08/16 01:53:15;;;;;;;11.35;9.88;;;;;;;;;;9993318;29;20494;-68
2022/08/16 01:58:13;;;;;;;11.18;10.07;;;;;;;;;;9994160;29;20332;-68
2022/08/16 02:03:16;;;;;;;12.93;10.52;;;;;;;;;;9992840;29;20082;-68
2022/08/16 02:08:19;;;;;;;12.93;9.93;;;;;;;;;;9989746;29;20475;-68
2022/08/16 02:13:29;;;;;;;11.95;10.75;;;;;;;;;;9987675;29;20040;-68
2022/08/16 02:18:28;;;;;;;13.43;11.57;;;;;;;;;;9986831;29;20059;-68
2022/08/16 02:23:24;;;;;;;11.85;10.57;;;;;;;;;;9988458;29;20100;-67
2022/08/16 02:28:25;;;;;;;14.13;12.30;;;;;;;;;;9991946;29;20048;-67
2022/08/16 02:33:22;;;;;;;13.15;10.15;;;;;;;;;;9992034;29;20044;-67
2022/08/16 02:38:20;;;;;;;13.25;11.00;;;;;;;;;;9987790;29;20044;-68
2022/08/16 02:43:17;;;;;;;13.82;11.85;;;;;;;;;;9987077;29;20555;-69
2022/08/16 02:48:13;;;;;;;12.63;11.30;;;;;;;;;;9983470;29;20655;-68
2022/08/16 02:53:26;;;;;;;12.52;11.10;;;;;;;;;;9985000;29;20524;-68
2022/08/16 02:58:22;;;;;;;13.90;11.18;;;;;;;;;;9989833;29;20043;-68
2022/08/16 03:03:21;;;;;;;12.57;10.63;;;;;;;;;;9987746;29;20080;-68
2022/08/16 03:08:17;;;;;;;13.48;10.88;;;;;;;;;;9988684;29;20109;-68
2022/08/16 03:13:34;;;;;;;11.88;9.93;;;;;;;;;;9996654;29;20044;-68
2022/08/16 03:18:35;;;;;;;12.98;11.02;;;;;;;;;;9984475;29;20043;-68
2022/08/16 03:23:35;;;;;;;12.70;11.40;;;;;;;;;;9990565;29;20044;-68
2022/08/16 03:28:32;;;;;;;15.80;12.90;;;;;;;;;;9990089;29;20040;-67
2022/08/16 03:33:28;;;;;;;12.68;10.55;;;;;;;;;;9991776;29;20052;-68
2022/08/16 03:38:26;;;;;;;16.02;13.68;;;;;;;;;;9990159;29;20075;-68
2022/08/16 03:43:30;;;;;;;16.20;14.15;;;;;;;;;;9990412;29;20075;-68
2022/08/16 03:48:46;;;;;;;17.15;13.63;;;;;;;;;;9991403;29;20411;-68
2022/08/16 03:53:45;;;;;;;18.08;14.63;;;;;;;;;;9994292;28;20091;-68
2022/08/16 03:58:56;;;;;;;18.83;14.77;;;;;;;;;;9984927;29;20284;-68
2022/08/16 04:03:53;;;;;;;16.30;13.52;;;;;;;;;;9979384;29;20060;-67
2022/08/16 04:08:50;;;;;;;18.85;13.93;;;;;;;;;;10000583;29;20064;-68
2022/08/16 04:13:46;;;;;;;15.13;13.43;;;;;;;;;;9981335;29;20107;-68
2022/08/16 04:19:03;;;;;;;15.98;14.27;;;;;;;;;;9980904;29;20144;-68
2022/08/16 04:24:00;;;;;;;17.08;12.48;;;;;;;;;;9970269;29;20048;-68
2022/08/16 04:28:59;;;;;;;17.90;13.85;;;;;;;;;;9976255;29;20112;-68
2022/08/16 04:34:15;;;;;;;30.35;12.80;;;;;;;;;;9979218;29;20099;-67
2022/08/16 04:39:11;;;;;;;16.65;12.32;;;;;;;;;;9983270;29;20152;-67
2022/08/16 04:44:12;;;;;;;14.98;11.85;;;;;;;;;;9985258;29;20048;-68
2022/08/16 04:49:28;;;;;;;14.65;12.40;;;;;;;;;;9994217;29;20055;-68
2022/08/16 04:54:41;;;;;;;19.83;13.93;;;;;;;;;;9989507;29;20055;-68
2022/08/16 04:59:38;;;;;;;16.02;13.25;;;;;;;;;;9988809;29;20056;-68
2022/08/16 05:04:37;;;;;;;14.07;12.55;;;;;;;;;;9991577;29;20052;-68
2022/08/16 05:09:35;;;;;;;18.92;15.02;;;;;;;;;;9992009;29;20044;-67
2022/08/16 05:14:33;;;;;;;17.48;14.13;;;;;;;;;;9994080;29;20494;-68
2022/08/16 05:19:41;;;;;;;18.80;14.48;;;;;;;;;;9989549;29;20139;-68
2022/08/16 05:24:53;;;;;;;22.57;16.03;;;;;;;;;;9989302;29;20060;-68
2022/08/16 05:29:50;;;;;;;29.48;18.05;;;;;;;;;;9992682;29;20051;-68
2022/08/16 05:34:56;;;;;;;24.05;16.33;;;;;;;;;;9992187;29;20163;-68
2022/08/16 05:39:52;;;;;;;19.67;15.65;;;;;;;;;;9989550;29;20146;-68
2022/08/16 05:44:51;;;;;;;21.38;16.63;;;;;;;;;;9994330;29;20048;-68
2022/08/16 05:49:47;;;;;;;20.90;18.63;;;;;;;;;;9994199;28;20334;-68
2022/08/16 05:54:46;;;;;;;22.10;16.92;;;;;;;;;;9987289;29;20114;-68
2022/08/16 05:59:56;;;;;;;22.30;16.40;;;;;;;;;;9981580;29;20063;-68
2022/08/16 06:04:55;;;;;;;25.80;17.48;;;;;;;;;;9983702;29;20096;-68
2022/08/16 06:09:54;;;;;;;20.27;15.95;;;;;;;;;;9986300;29;20040;-68
2022/08/16 06:14:51;;;;;;;18.58;15.35;;;;;;;;;;9980758;29;20091;-68
2022/08/16 06:19:50;;;;;;;23.48;15.95;;;;;;;;;;10001771;29;20056;-68
2022/08/16 06:24:46;;;;;;;21.52;15.57;;;;;;;;;;9989731;29;20052;-68
2022/08/16 06:29:50;;;;;;;20.02;14.48;;;;;;;;;;9987419;29;20562;-68
2022/08/16 06:34:46;;;;;;;17.23;12.52;;;;;;;;;;9988655;29;20044;-69
2022/08/16 06:39:58;;;;;;;19.17;13.65;;;;;;;;;;9979968;29;20150;-68
2022/08/16 06:44:54;;;;;;;16.63;13.93;;;;;;;;;;9970337;29;20146;-69
2022/08/16 06:49:50;;;;;;;14.35;11.50;;;;;;;;;;9971965;29;20048;-68
2022/08/16 06:54:49;;;;;;;11.75;9.88;;;;;;;;;;9976617;29;20117;-68
2022/08/16 06:59:47;;;;;;;14.70;10.45;;;;;;;;;;9981046;29;20481;-68
2022/08/16 07:04:53;;;;;;;17.50;9.35;;;;;;;;;;9976819;29;20124;-68
2022/08/16 07:09:50;;;;;;;16.75;10.75;;;;;;;;;;9979019;29;20047;-68
2022/08/16 07:14:47;;;;;;;17.10;11.35;;;;;;;;;;9981146;29;20064;-68
2022/08/16 07:19:45;;;;;;;13.50;9.20;;;;;;;;;;9972129;29;20075;-68
2022/08/16 07:25:02;;;;;;;11.48;8.68;;;;;;;;;;9983302;29;20059;-69
2022/08/16 07:29:58;;;;;;;11.98;9.25;;;;;;;;;;9982796;29;20096;-68
2022/08/16 07:34:55;;;;;;;11.27;8.38;;;;;;;;;;9983709;29;22214;-68
2022/08/16 07:39:52;;;;;;;9.98;7.47;;;;;;;;;;9968817;29;20052;-68
2022/08/16 07:44:50;;;;;;;15.45;8.73;;;;;;;;;;9974950;29;20076;-68
2022/08/16 07:49:46;;;;;;;9.77;7.88;;;;;;;;;;9976355;29;20075;-68
2022/08/16 07:54:53;;;;;;;9.32;7.75;;;;;;;;;;9978589;29;20059;-68
2022/08/16 07:59:49;;;;;;;10.38;8.40;;;;;;;;;;9976611;29;20127;-68
2022/08/16 08:04:47;;;;;;;14.43;8.80;;;;;;;;;;9982221;29;20485;-69
2022/08/16 08:09:44;;;;;;;11.30;9.95;;;;;;;;;;9972435;29;20075;-69
2022/08/16 08:14:41;;;;;;;12.93;9.23;;;;;;;;;;9983212;29;20051;-70
2022/08/16 08:19:41;;;;;;;16.88;8.63;;;;;;;;;;9988188;29;20055;-70
2022/08/16 08:24:48;;;;;;;13.15;8.63;;;;;;;;;;9992052;29;20498;-70
2022/08/16 08:29:45;;;;;;;11.50;9.52;;;;;;;;;;9989436;29;20142;-70
2022/08/16 08:35:01;;;;;;;12.63;8.98;;;;;;;;;;9989192;29;20502;-71
2022/08/16 08:39:59;;;;;;;12.20;8.85;;;;;;;;;;9981252;29;20098;-70
2022/08/16 08:44:55;;;;;;;15.90;8.85;;;;;;;;;;9989160;29;20443;-71
2022/08/16 08:49:53;;;;;;;10.77;9.65;;;;;;;;;;9983193;29;20119;-70
2022/08/16 08:54:51;;;;;;;13.68;10.77;;;;;;;;;;9986626;29;20059;-71
2022/08/16 08:59:47;;;;;;;10.32;9.13;;;;;;;;;;9988657;29;20048;-71
2022/08/16 09:04:44;;;;;;;11.38;10.07;;;;;;;;;;10002910;29;20482;-70
2022/08/16 09:09:43;;;;;;;11.40;10.15;;;;;;;;;;9986158;29;20050;-70
2022/08/16 09:14:42;;;;;;;12.82;11.27;;;;;;;;;;9985046;29;20063;-70
2022/08/16 09:19:46;;;;;;;13.77;11.23;;;;;;;;;;9987249;29;20044;-70
2022/08/16 09:24:50;;;;;;;12.15;11.05;;;;;;;;;;9987409;29;20138;-71
2022/08/16 09:30:05;;;;;;;11.85;10.73;;;;;;;;;;9989361;29;20697;-70
2022/08/16 09:35:21;;;;;;;13.40;11.32;;;;;;;;;;9987206;29;20535;-70
2022/08/16 09:40:19;;;;;;;11.75;10.75;;;;;;;;;;9985288;29;20166;-71
2022/08/16 09:45:37;;;;;;;13.38;9.65;;;;;;;;;;9989066;29;20048;-71
2022/08/16 09:50:35;;;;;;;12.02;10.93;;;;;;;;;;9984311;29;20044;-72
2022/08/16 09:55:35;;;;;;;12.47;11.27;;;;;;;;;;9996455;29;20055;-72
2022/08/16 10:00:40;;;;;;;12.13;10.07;;;;;;;;;;9984473;29;21230;-72
2022/08/16 10:05:39;;;;;;;12.73;11.35;;;;;;;;;;9985561;29;20043;-73
2022/08/16 10:10:35;;;;;;;13.05;11.75;;;;;;;;;;9983489;29;20142;-73
2022/08/16 10:15:34;;;;;;;12.20;11.20;;;;;;;;;;9985863;29;20115;-72
2022/08/16 10:20:32;;;;;;;12.00;10.90;;;;;;;;;;9978645;29;20118;-72
2022/08/16 10:25:30;;;;;;;11.40;10.32;;;;;;;;;;9986861;29;20063;-72
2022/08/16 10:30:46;;;;;;;12.40;11.20;;;;;;;;;;9999120;29;20048;-73
2022/08/16 10:35:51;;;;;;;11.23;10.25;;;;;;;;;;9985377;29;20059;-72
2022/08/16 10:40:48;;;;;;;10.82;9.73;;;;;;;;;;9976817;29;20143;-72
2022/08/16 10:45:46;;;;;;;11.43;10.18;;;;;;;;;;9983114;29;20506;-70
2022/08/16 10:50:57;;;;;;;10.70;9.77;;;;;;;;;;9969724;29;20060;-72
2022/08/16 10:55:54;;;;;;;10.57;9.68;;;;;;;;;;9973792;29;20051;-71
2022/08/16 11:00:56;;;;;;;13.18;11.20;;;;;;;;;;9975956;29;20045;-71
2022/08/16 11:05:52;;;;;;;10.70;9.80;;;;;;;;;;9973826;29;20056;-72
2022/08/16 11:11:03;;;;;;;11.60;10.70;;;;;;;;;;9978116;29;20056;-71
2022/08/16 11:16:04;;;;;;;11.82;10.63;;;;;;;;;;9982439;29;20056;-72
2022/08/16 11:21:22;;;;;;;10.85;9.88;;;;;;;;;;9989637;29;20058;-71
2022/08/16 11:26:25;;;;;;;11.52;10.48;;;;;;;;;;9984613;29;20048;-71
2022/08/16 11:31:22;;;;;;;11.15;10.23;;;;;;;;;;9976951;29;20552;-71
2022/08/16 11:36:21;;;;;;;10.95;9.95;;;;;;;;;;9979045;29;20040;-69
2022/08/16 11:41:24;;;;;;;11.05;9.95;;;;;;;;;;9982758;29;20471;-70
2022/08/16 11:46:25;;;;;;;10.73;9.73;;;;;;;;;;9977950;29;20417;-70
2022/08/16 11:51:43;;;;;;;11.00;10.00;;;;;;;;;;9990767;29;20040;-70
2022/08/16 11:56:39;;;;;;;11.88;9.93;;;;;;;;;;9984436;29;20060;-70
2022/08/16 12:01:52;;;;;;;11.43;10.20;;;;;;;;;;9983278;29;20103;-70
2022/08/16 12:06:56;;;;;;;11.18;10.00;;;;;;;;;;9987510;29;20056;-71
2022/08/16 12:11:52;;;;;;;12.05;9.30;;;;;;;;;;9981550;29;21027;-71
2022/08/16 12:16:50;;;;;;;10.68;9.68;;;;;;;;;;9986645;29;20119;-71
2022/08/16 12:21:51;;;;;;;11.07;9.95;;;;;;;;;;9989442;29;20139;-70
2022/08/16 12:26:55;;;;;;;9.50;8.60;;;;;;;;;;9987055;29;20051;-70
2022/08/16 12:31:51;;;;;;;10.45;9.30;;;;;;;;;;9979721;29;20167;-71
2022/08/16 12:37:07;;;;;;;12.13;9.75;;;;;;;;;;9996016;29;20063;-71
2022/08/16 12:42:08;;;;;;;9.82;8.82;;;;;;;;;;9978075;29;20526;-71
2022/08/16 12:52:19;;;;;;;10.45;9.45;;;;;;;;;;9975482;29;20044;-71
2022/08/16 12:57:30;;;;;;;11.55;9.88;;;;;;;;;;9980585;29;20060;-71
2022/08/16 13:02:32;;;;;;;11.30;10.32;;;;;;;;;;9967828;29;20139;-71
2022/08/16 13:07:32;;;;;;;11.88;10.55;;;;;;;;;;9973714;29;20055;-72
2022/08/16 13:12:42;;;;;;;12.80;11.65;;;;;;;;;;9993178;29;20046;-72
2022/08/16 13:17:41;;;;;;;14.77;11.77;;;;;;;;;;9982289;29;20608;-72
2022/08/16 13:22:40;;;;;;;12.55;11.30;;;;;;;;;;9982090;29;20048;-72
2022/08/16 13:27:37;;;;;;;11.70;10.50;;;;;;;;;;9982973;29;20052;-72
2022/08/16 13:32:54;;;;;;;17.10;11.45;;;;;;;;;;9979972;29;20473;-72
2022/08/16 13:37:50;;;;;;;11.73;10.52;;;;;;;;;;9984767;29;20112;-72
2022/08/16 13:42:51;;;;;;;11.07;10.07;;;;;;;;;;9987989;29;20050;-72
2022/08/16 13:47:48;;;;;;;10.15;9.18;;;;;;;;;;9992187;29;20526;-71
2022/08/16 13:52:48;;;;;;;10.23;9.25;;;;;;;;;;9984988;29;20048;-72
2022/08/16 13:57:45;;;;;;;11.85;9.40;;;;;;;;;;9982853;29;20502;-70
2022/08/16 14:03:01;;;;;;;10.15;9.20;;;;;;;;;;9979094;29;20057;-71
2022/08/16 14:07:57;;;;;;;11.00;9.90;;;;;;;;;;9986003;29;20080;-71
2022/08/16 14:12:54;;;;;;;10.45;9.35;;;;;;;;;;9984851;29;20135;-71
2022/08/16 14:17:50;;;;;;;10.57;9.50;;;;;;;;;;9979456;29;20719;-71
2022/08/16 14:23:07;;;;;;;9.45;8.75;;;;;;;;;;9984650;29;20044;-71
2022/08/16 14:28:03;;;;;;;10.38;9.32;;;;;;;;;;9988431;29;20040;-71
2022/08/16 14:33:04;;;;;;;9.77;8.88;;;;;;;;;;9990739;29;20044;-71
2022/08/16 14:38:02;;;;;;;10.95;9.85;;;;;;;;;;9987101;29;20064;-71
2022/08/16 14:43:00;;;;;;;10.38;9.48;;;;;;;;;;9984916;29;20041;-71
2022/08/16 14:48:02;;;;;;;10.63;9.55;;;;;;;;;;9968505;29;20422;-72
2022/08/16 14:53:00;;;;;;;9.32;8.35;;;;;;;;;;9984670;29;20049;-71
2022/08/16 14:57:59;;;;;;;10.18;8.63;;;;;;;;;;9965545;29;20041;-71
2022/08/16 15:02:56;;;;;;;8.77;7.65;;;;;;;;;;9979480;29;20052;-72
2022/08/16 15:07:53;;;;;;;9.55;7.30;;;;;;;;;;9988672;29;20052;-71
2022/08/16 15:12:54;;;;;;;7.72;7.03;;;;;;;;;;9980228;29;20044;-71
2022/08/16 15:17:52;;;;;;;8.48;7.68;;;;;;;;;;9977912;29;20069;-72
2022/08/16 15:22:52;;;;;;;9.13;8.23;;;;;;;;;;9980653;29;20542;-70
2022/08/16 15:27:50;;;;;;;9.20;8.02;;;;;;;;;;9984290;29;20650;-70
2022/08/16 15:32:56;;;;;;;9.00;8.15;;;;;;;;;;9984853;29;20131;-70
2022/08/16 15:37:53;;;;;;;8.88;7.97;;;;;;;;;;9967003;29;20052;-70
2022/08/16 15:42:51;;;;;;;9.23;7.90;;;;;;;;;;9982864;29;20056;-70
2022/08/16 15:47:49;;;;;;;9.68;8.77;;;;;;;;;;9972836;29;20056;-71
2022/08/16 15:52:53;;;;;;;10.50;8.93;;;;;;;;;;9972937;29;20676;-71
2022/08/16 15:57:51;;;;;;;9.95;9.02;;;;;;;;;;9980572;29;20051;-71
2022/08/16 16:02:48;;;;;;;9.70;8.88;;;;;;;;;;9982431;29;20052;-71
2022/08/16 16:07:45;;;;;;;10.02;8.93;;;;;;;;;;9996955;29;20142;-69
2022/08/16 16:13:04;;;;;;;9.50;8.68;;;;;;;;;;9980387;29;20426;-68
2022/08/16 16:18:04;;;;;;;9.10;8.18;;;;;;;;;;9977915;29;20064;-69
2022/08/16 16:23:06;;;;;;;11.48;8.50;;;;;;;;;;9984131;29;20055;-68
2022/08/16 16:28:06;;;;;;;9.65;8.85;;;;;;;;;;9973848;29;20529;-68
2022/08/16 16:33:23;;;;;;;9.40;8.52;;;;;;;;;;9974284;29;20052;-68
2022/08/16 16:38:20;;;;;;;8.55;7.78;;;;;;;;;;9987587;29;20084;-68
2022/08/16 16:43:16;;;;;;;8.93;8.18;;;;;;;;;;9986597;29;20481;-68
2022/08/16 16:48:13;;;;;;;9.38;8.38;;;;;;;;;;9986184;29;20156;-68
2022/08/16 16:53:13;;;;;;;9.88;9.00;;;;;;;;;;9986849;29;20174;-68
2022/08/16 17:03:32;;;;;;;10.40;9.50;;;;;;;;;;9991163;29;20129;-69
2022/08/16 17:08:29;;;;;;;9.75;8.90;;;;;;;;;;9980601;29;20119;-69
2022/08/16 17:13:26;;;;;;;8.73;7.93;;;;;;;;;;9989169;29;20150;-68
2022/08/16 17:18:22;;;;;;;8.63;7.93;;;;;;;;;;9988679;29;20127;-68
2022/08/16 17:23:39;;;;;;;9.52;8.63;;;;;;;;;;9989235;29;20050;-68
2022/08/16 17:28:56;;;;;;;10.23;9.38;;;;;;;;;;9976625;29;20044;-68
2022/08/16 17:34:06;;;;;;;9.10;8.35;;;;;;;;;;9983692;29;20075;-68
2022/08/16 17:39:23;;;;;;;10.65;9.40;;;;;;;;;;9981874;29;20895;-68
2022/08/16 17:44:19;;;;;;;10.63;9.05;;;;;;;;;;9978013;29;20088;-68
2022/08/16 17:49:15;;;;;;;9.52;8.63;;;;;;;;;;9980640;29;20076;-68
2022/08/16 17:54:12;;;;;;;12.93;8.88;;;;;;;;;;9986890;29;20048;-69
2022/08/16 17:59:26;;;;;;;9.57;8.77;;;;;;;;;;9980963;29;20130;-68
2022/08/16 18:04:23;;;;;;;8.85;8.05;;;;;;;;;;9977545;29;20048;-68
2022/08/16 18:09:39;;;;;;;9.18;8.32;;;;;;;;;;9982096;29;20059;-69
2022/08/16 18:14:36;;;;;;;9.48;8.60;;;;;;;;;;9982770;29;20096;-69
2022/08/16 18:19:48;;;;;;;9.50;8.55;;;;;;;;;;9981349;29;20494;-69
2022/08/16 18:24:50;;;;;;;9.00;8.20;;;;;;;;;;9983444;29;20044;-69
2022/08/16 18:29:47;;;;;;;8.85;7.95;;;;;;;;;;9981820;29;20471;-68
2022/08/16 18:34:47;;;;;;;10.00;9.00;;;;;;;;;;9985749;29;20067;-68
2022/08/16 18:39:43;;;;;;;9.25;8.35;;;;;;;;;;9981996;29;20056;-68
2022/08/16 18:44:41;;;;;;;9.35;8.45;;;;;;;;;;9982805;29;20108;-69
2022/08/16 18:49:37;;;;;;;9.02;8.07;;;;;;;;;;9978865;29;20135;-69
2022/08/16 18:54:34;;;;;;;8.88;8.05;;;;;;;;;;9981880;29;20487;-69
2022/08/16 18:59:50;;;;;;;9.93;9.00;;;;;;;;;;9981112;29;20055;-69
2022/08/16 19:04:46;;;;;;;8.43;7.63;;;;;;;;;;9983308;29;20078;-69
2022/08/16 19:09:53;;;;;;;8.82;7.78;;;;;;;;;;9982294;29;20127;-70
2022/08/16 19:14:49;;;;;;;8.98;8.13;;;;;;;;;;9986589;29;20043;-68
2022/08/16 19:19:46;;;;;;;11.98;8.68;;;;;;;;;;9980872;29;20072;-70
2022/08/16 19:24:42;;;;;;;10.15;8.52;;;;;;;;;;9984267;29;20534;-70
2022/08/16 19:29:39;;;;;;;9.85;8.70;;;;;;;;;;9983329;29;20040;-70
2022/08/16 19:34:35;;;;;;;9.95;8.10;;;;;;;;;;9981596;29;20052;-71
2022/08/16 19:39:32;;;;;;;8.88;7.97;;;;;;;;;;9981233;29;20071;-71
2022/08/16 19:44:28;;;;;;;11.80;7.82;;;;;;;;;;9979340;29;20048;-71
2022/08/16 19:49:25;;;;;;;11.63;9.70;;;;;;;;;;9977946;29;20067;-70
2022/08/16 19:54:21;;;;;;;11.77;10.45;;;;;;;;;;9980930;29;20068;-71
2022/08/16 19:59:18;;;;;;;9.50;8.50;;;;;;;;;;9990147;29;20071;-70
2022/08/16 20:04:17;;;;;;;11.55;8.93;;;;;;;;;;9991367;29;20083;-70
2022/08/16 20:09:13;;;;;;;11.75;9.60;;;;;;;;;;9986019;29;20095;-70
2022/08/16 20:14:11;;;;;;;12.43;10.13;;;;;;;;;;9991286;29;20542;-69
2022/08/16 20:19:20;;;;;;;11.50;9.63;;;;;;;;;;9999314;29;20052;-69
2022/08/16 20:24:16;;;;;;;10.25;9.23;;;;;;;;;;9988921;29;20131;-69
2022/08/16 20:29:29;;;;;;;13.82;9.32;;;;;;;;;;9986662;29;20163;-69
2022/08/16 20:34:25;;;;;;;10.27;8.77;;;;;;;;;;9993325;29;20082;-68
2022/08/16 20:39:22;;;;;;;9.52;8.55;;;;;;;;;;9996276;29;20076;-69
2022/08/16 20:44:19;;;;;;;10.60;9.60;;;;;;;;;;9997854;29;20115;-69
2022/08/16 20:49:20;;;;;;;9.93;8.90;;;;;;;;;;9989549;29;20104;-70
2022/08/16 20:54:16;;;;;;;10.85;8.65;;;;;;;;;;10000773;29;20563;-70
2022/08/16 20:59:13;;;;;;;12.80;10.35;;;;;;;;;;9996146;29;20135;-70
2022/08/16 21:04:09;;;;;;;12.43;10.15;;;;;;;;;;9992705;29;20589;-70
2022/08/16 21:09:08;;;;;;;13.40;10.65;;;;;;;;;;9996235;29;20471;-70
2022/08/16 21:14:09;;;;;;;12.60;10.15;;;;;;;;;;9997498;29;20052;-70
2022/08/16 21:19:06;;;;;;;15.02;10.48;;;;;;;;;;9989001;29;20052;-70
2022/08/16 21:24:02;;;;;;;12.45;9.48;;;;;;;;;;9994323;29;20048;-70
2022/08/16 21:28:58;;;;;;;11.90;9.18;;;;;;;;;;9991156;29;20166;-71
2022/08/16 21:33:55;;;;;;;16.42;10.68;;;;;;;;;;9991744;29;20048;-70
2022/08/16 21:38:51;;;;;;;13.73;11.60;;;;;;;;;;9996017;29;20103;-70
2022/08/16 21:43:48;;;;;;;12.95;11.35;;;;;;;;;;9989672;29;20136;-71
2022/08/16 21:48:44;;;;;;;17.65;12.20;;;;;;;;;;9985059;29;20059;-71
2022/08/16 21:53:41;;;;;;;11.07;9.93;;;;;;;;;;9984802;29;20080;-71
2022/08/16 21:58:38;;;;;;;11.70;9.55;;;;;;;;;;9994382;29;20533;-70
2022/08/16 22:03:34;;;;;;;13.35;12.00;;;;;;;;;;9992870;29;20470;-71
2022/08/16 22:08:30;;;;;;;9.18;8.25;;;;;;;;;;9987707;29;20071;-72
2022/08/16 22:13:27;;;;;;;8.90;8.00;;;;;;;;;;9982806;29;20044;-72
2022/08/16 22:18:23;;;;;;;11.90;9.75;;;;;;;;;;9978434;29;20204;-72
2022/08/16 22:23:21;;;;;;;15.30;11.95;;;;;;;;;;9998337;29;20452;-70
2022/08/16 22:28:18;;;;;;;12.80;9.93;;;;;;;;;;9993363;29;20107;-70
2022/08/16 22:33:16;;;;;;;11.07;9.80;;;;;;;;;;9998598;29;20116;-70
2022/08/16 22:38:12;;;;;;;11.27;10.15;;;;;;;;;;9988804;29;20144;-70
2022/08/16 22:43:30;;;;;;;14.82;12.27;;;;;;;;;;10006075;29;20135;-70
2022/08/16 22:48:26;;;;;;;13.63;12.20;;;;;;;;;;9991449;29;20048;-69
2022/08/16 22:53:25;;;;;;;12.55;9.40;;;;;;;;;;9992352;29;20060;-70
2022/08/16 22:58:21;;;;;;;12.15;9.23;;;;;;;;;;9989554;29;20106;-70
2022/08/16 23:03:31;;;;;;;11.25;10.15;;;;;;;;;;9988796;29;20044;-70
2022/08/16 23:08:30;;;;;;;13.00;11.40;;;;;;;;;;9959933;29;20093;-70
2022/08/16 23:13:35;;;;;;;14.02;11.32;;;;;;;;;;9976353;29;20048;-71
2022/08/16 23:18:31;;;;;;;13.02;11.70;;;;;;;;;;9991375;29;20269;-69
2022/08/16 23:23:28;;;;;;;11.90;10.30;;;;;;;;;;9985672;29;20519;-70
2022/08/16 23:28:26;;;;;;;15.30;12.20;;;;;;;;;;9991074;29;20135;-70
2022/08/16 23:33:24;;;;;;;14.32;12.77;;;;;;;;;;9991561;29;20162;-70
2022/08/16 23:38:21;;;;;;;14.00;10.98;;;;;;;;;;9987631;29;20048;-70
2022/08/16 23:43:39;;;;;;;12.30;10.50;;;;;;;;;;9983785;29;20426;-70
2022/08/16 23:48:36;;;;;;;12.95;10.38;;;;;;;;;;9979063;29;20690;-70
2022/08/16 23:53:54;;;;;;;14.90;12.57;;;;;;;;;;9983339;29;20048;-70
2022/08/16 23:58:50;;;;;;;11.93;10.40;;;;;;;;;;9982064;29;20566;-70
